createdAt,value
2022-08-02T00:02:35.457Z,100297.66
2022-08-02T00:08:37.777Z,100296.91
2022-08-02T00:14:40.255Z,100303.41
2022-08-02T00:20:42.266Z,100300.69
2022-08-02T00:26:44.309Z,100304.16
2022-08-02T00:32:47.746Z,100306.44
2022-08-02T00:38:53.151Z,100304.47
2022-08-02T00:44:55.306Z,100296.81
2022-08-02T00:51:02.647Z,100304.09
2022-08-02T00:57:06.349Z,100298.38
2022-08-02T01:03:08.542Z,100296.03
2022-08-02T01:09:12.327Z,100298.72
2022-08-02T01:15:15.221Z,100298.72
2022-08-02T01:21:38.681Z,100301.81
2022-08-02T01:27:53.402Z,100294.47
2022-08-02T01:34:15.498Z,100294.47
2022-08-02T01:40:31.350Z,100284.13
2022-08-02T01:46:35.436Z,100291.38
2022-08-02T01:52:42.817Z,100302.13
2022-08-02T01:58:56.418Z,100296.78
2022-08-02T02:05:03.458Z,100296.06
2022-08-02T02:12:09.410Z,100301.81
2022-08-02T02:18:11.267Z,100297.59
2022-08-02T02:23:55.960Z,100305.66
2022-08-02T02:30:00.861Z,100299.88
2022-08-02T02:36:03.890Z,100293.34
2022-08-02T02:42:11.272Z,100298.34
2022-08-02T02:48:15.955Z,100297.56
2022-08-02T02:54:32.903Z,100305.19
2022-08-02T03:00:56.352Z,100309.09
2022-08-02T03:07:00.636Z,100318.25
2022-08-02T03:13:03.569Z,100324.78
2022-08-02T03:19:05.585Z,100335.16
2022-08-02T03:25:09.021Z,100327.47
2022-08-02T03:31:12.801Z,100328.69
2022-08-02T03:37:17.179Z,100326.75
2022-08-02T03:43:23.009Z,100335.97
2022-08-02T03:49:25.644Z,100339.81
2022-08-02T03:55:27.930Z,100347.09
2022-08-02T04:01:48.812Z,100361.59
2022-08-02T04:08:34.116Z,100361.91
2022-08-02T04:14:13.827Z,100371.53
